createdAt,value
2019-03-04T00:04:37.671Z,6.6
2019-03-04T00:10:00.523Z,8.3
2019-03-04T00:15:23.177Z,6.8
2019-03-04T00:20:45.855Z,6.7
2019-03-04T00:26:08.866Z,6.5
2019-03-04T00:31:32.274Z,5.8
2019-03-04T00:36:55.033Z,5.2
2019-03-04T00:42:18.009Z,6.8
2019-03-04T00:47:40.560Z,5.7
2019-03-04T00:53:14.150Z,5.4
2019-03-04T00:58:36.887Z,4.7
2019-03-04T01:03:59.974Z,6.2
2019-03-04T01:09:22.533Z,6.1
2019-03-04T01:14:45.246Z,5.2
2019-03-04T01:20:07.980Z,5.8
2019-03-04T01:25:30.635Z,7.5
2019-03-04T01:30:53.223Z,4.6
2019-03-04T01:36:15.934Z,3.7
2019-03-04T01:41:38.651Z,5.2
2019-03-04T01:47:01.632Z,5.1
2019-03-04T01:52:24.442Z,4.9
2019-03-04T01:57:47.166Z,5.8
2019-03-04T02:03:10.628Z,3.8
2019-03-04T02:08:33.950Z,4.6
2019-03-04T02:13:56.624Z,6
2019-03-04T02:19:19.457Z,7.3
2019-03-04T02:24:42.059Z,5.5
2019-03-04T02:30:04.827Z,3.4
2019-03-04T02:35:27.485Z,3.9
2019-03-04T02:40:50.277Z,6.7
2019-03-04T02:46:12.913Z,5.5
2019-03-04T02:51:35.678Z,5.1
2019-03-04T02:56:58.408Z,6.2
2019-03-04T03:02:21.954Z,3.6
2019-03-04T03:07:44.868Z,4.3
2019-03-04T03:13:08.239Z,6.2
2019-03-04T03:18:31.158Z,5.3
2019-03-04T03:23:53.767Z,7.2
2019-03-04T03:29:16.488Z,4.9
2019-03-04T03:34:39.228Z,2.6
2019-03-04T03:40:02.525Z,3.4
2019-03-04T03:45:25.442Z,5.8
2019-03-04T03:50:48.099Z,3.1
2019-03-04T03:56:10.929Z,4.4
2019-03-04T04:01:33.699Z,3.1
2019-03-04T04:06:56.949Z,3
2019-03-04T04:12:19.626Z,2.8
2019-03-04T04:17:42.246Z,3.1
2019-03-04T04:23:04.922Z,5.3
2019-03-04T04:28:28.490Z,2.7
2019-03-04T04:33:51.316Z,2.2
2019-03-04T04:39:14.363Z,2.4
2019-03-04T04:44:37.156Z,3.3
2019-03-04T04:49:59.971Z,3.2
2019-03-04T04:55:22.666Z,1.9
2019-03-04T05:00:45.935Z,2.7
2019-03-04T05:06:08.645Z,2.8
2019-03-04T05:11:33.078Z,3.6
2019-03-04T05:16:55.792Z,2.8
2019-03-04T05:22:18.751Z,1.6
2019-03-04T05:27:41.478Z,1.6
2019-03-04T05:33:04.206Z,4.1
2019-03-04T05:38:27.088Z,2.7
2019-03-04T05:43:49.750Z,2.3
2019-03-04T05:49:12.357Z,2.4
2019-03-04T05:54:35.125Z,2
2019-03-04T05:59:58.862Z,3.3
2019-03-04T06:05:21.626Z,2.8
2019-03-04T06:10:45.255Z,3.5
2019-03-04T06:16:08.995Z,3
2019-03-04T06:21:31.667Z,1.9
2019-03-04T06:26:54.380Z,2.7
2019-03-04T06:32:16.965Z,2.6
2019-03-04T06:37:39.687Z,2.1
2019-03-04T06:43:02.318Z,1.7
2019-03-04T06:48:25.271Z,2
2019-03-04T06:53:47.881Z,2.8
2019-03-04T06:59:12.339Z,1.5
2019-03-04T07:04:34.931Z,2.9
2019-03-04T07:09:57.685Z,2.8
2019-03-04T07:15:20.386Z,1.4
2019-03-04T07:20:43.100Z,2.3
2019-03-04T07:26:07.192Z,2.8
2019-03-04T07:31:30.936Z,1.1
2019-03-04T07:36:53.650Z,1
2019-03-04T07:42:16.499Z,1.2
2019-03-04T07:47:39.130Z,0.7
2019-03-04T07:53:01.792Z,0.4
2019-03-04T07:58:25.786Z,1.1
2019-03-04T08:03:47.239Z,0.9
2019-03-04T08:09:09.951Z,2.1
2019-03-04T08:14:32.574Z,2.3
2019-03-04T08:19:55.152Z,1
2019-03-04T08:25:17.809Z,3.7
2019-03-04T08:30:40.746Z,1.3
2019-03-04T08:36:03.423Z,1.5
2019-03-04T08:41:26.014Z,1.6
2019-03-04T08:46:48.773Z,2.5
2019-03-04T08:52:11.495Z,1.9
2019-03-04T08:57:34.884Z,0.9
2019-03-04T09:02:57.175Z,2
2019-03-04T09:08:19.845Z,1.2
2019-03-04T09:13:43.522Z,1.3
2019-03-04T09:19:06.154Z,1.5
2019-03-04T09:24:28.856Z,3.8
2019-03-04T09:29:51.566Z,1.8
2019-03-04T09:35:14.295Z,3.1
2019-03-04T09:40:37.268Z,2.8
2019-03-04T09:45:59.945Z,2.4
2019-03-04T09:51:24.502Z,3.3
2019-03-04T09:56:45.423Z,4.8
2019-03-04T10:02:08.090Z,3.5
2019-03-04T10:07:30.761Z,3.3
2019-03-04T10:12:53.429Z,4.8
2019-03-04T10:18:16.123Z,3.7
2019-03-04T10:23:38.776Z,5.6
2019-03-04T10:29:02.243Z,3.4
2019-03-04T10:34:24.148Z,5
2019-03-04T10:39:46.783Z,3.9
2019-03-04T10:45:09.702Z,3.7
2019-03-04T10:50:32.388Z,3.3
2019-03-04T10:55:55.075Z,2.9
2019-03-04T11:01:30.061Z,2.5
2019-03-04T11:06:47.925Z,6.3
2019-03-04T11:12:11.002Z,4
2019-03-04T11:17:35.777Z,1.5
2019-03-04T11:22:58.975Z,1.5
2019-03-04T11:28:22.048Z,2
2019-03-04T11:33:44.776Z,2.4
2019-03-04T11:39:07.458Z,1.4
2019-03-04T11:44:31.135Z,3.7
2019-03-04T11:49:53.776Z,1.3
2019-03-04T11:55:16.612Z,1.4
2019-03-04T12:00:39.309Z,2.4
2019-03-04T12:06:02.000Z,1.8
2019-03-04T12:11:25.926Z,1.5
2019-03-04T12:16:49.808Z,2
2019-03-04T12:22:12.468Z,2
2019-03-04T12:27:37.668Z,1.6
2019-03-04T12:33:00.441Z,1.9
2019-03-04T12:38:23.250Z,2.4
2019-03-04T12:43:46.142Z,2.8
2019-03-04T12:49:08.865Z,3.5
2019-03-04T12:54:31.584Z,3.6
2019-03-04T12:59:54.197Z,3.5
2019-03-04T13:05:17.008Z,3.8
2019-03-04T13:10:39.646Z,3.6
2019-03-04T13:16:03.366Z,4
2019-03-04T13:21:26.000Z,3.1
2019-03-04T13:26:48.675Z,3.3
2019-03-04T13:32:12.037Z,3.6
2019-03-04T13:37:37.826Z,4
2019-03-04T13:42:58.180Z,3.5
2019-03-04T13:48:21.045Z,4.6
2019-03-04T13:53:43.776Z,6.4
2019-03-04T13:59:06.571Z,4.2
2019-03-04T14:04:29.312Z,3.7
2019-03-04T14:09:52.082Z,5.9
2019-03-04T14:15:23.317Z,4.8
2019-03-04T14:20:49.404Z,4.3
2019-03-04T14:26:12.093Z,6
2019-03-04T14:31:34.754Z,6.6
2019-03-04T14:36:57.546Z,7.3
2019-03-04T14:42:20.349Z,6.7
2019-03-04T14:47:43.129Z,5.4
2019-03-04T14:53:05.757Z,6.2
2019-03-04T14:58:28.734Z,7.6
2019-03-04T15:03:50.543Z,8.6
2019-03-04T15:09:13.205Z,8.2
2019-03-04T15:14:36.162Z,10.2
2019-03-04T15:20:08.714Z,7.1
2019-03-04T15:25:24.838Z,7.2
2019-03-04T15:30:48.240Z,6.2
2019-03-04T15:36:11.237Z,8
2019-03-04T15:41:34.087Z,9
2019-03-04T15:46:57.857Z,5.9
2019-03-04T15:52:20.522Z,8
2019-03-04T15:57:44.080Z,6
2019-03-04T16:03:07.893Z,7.7
2019-03-04T16:08:30.659Z,8.8
2019-03-04T16:13:56.058Z,6.5
2019-03-04T16:19:16.241Z,8.8
2019-03-04T16:24:38.948Z,8.4
2019-03-04T16:30:01.946Z,10.4
2019-03-04T16:35:24.624Z,7
2019-03-04T16:40:48.036Z,8.4
2019-03-04T16:46:10.675Z,9.9
2019-03-04T16:51:33.316Z,5.4
2019-03-04T16:56:55.978Z,8
2019-03-04T17:02:19.710Z,10.9
2019-03-04T17:07:42.486Z,6.2
2019-03-04T17:13:05.285Z,6.4
2019-03-04T17:18:27.931Z,10.1
2019-03-04T17:23:51.493Z,8.5
2019-03-04T17:29:14.098Z,7
2019-03-04T17:34:36.737Z,7.3
2019-03-04T17:40:00.482Z,7
2019-03-04T17:45:24.408Z,5.2
2019-03-04T17:50:47.642Z,6.6
2019-03-04T17:56:10.328Z,8.2
2019-03-04T18:01:33.039Z,8.3
2019-03-04T18:06:55.670Z,5.2
2019-03-04T18:12:18.602Z,8.1
2019-03-04T18:17:41.299Z,9
2019-03-04T18:23:03.885Z,7.3
2019-03-04T18:28:27.602Z,6.5
2019-03-04T18:33:51.038Z,8.6
2019-03-04T18:39:14.541Z,5.2
2019-03-04T18:44:37.205Z,8
2019-03-04T18:49:59.989Z,7.9
2019-03-04T18:55:23.717Z,7.3
2019-03-04T19:00:46.615Z,5.4
2019-03-04T19:06:09.848Z,7
2019-03-04T19:11:32.820Z,6.7
2019-03-04T19:16:55.557Z,7.1
2019-03-04T19:22:20.329Z,6.5
2019-03-04T19:27:41.378Z,5.4
2019-03-04T19:33:04.110Z,7.3
2019-03-04T19:38:26.834Z,5.3
2019-03-04T19:43:49.508Z,7
2019-03-04T19:49:12.158Z,6
2019-03-04T19:54:35.150Z,8.3
2019-03-04T19:59:57.929Z,5.7
2019-03-04T20:05:20.746Z,7
2019-03-04T20:10:44.514Z,6.5
2019-03-04T20:16:07.576Z,5.8
2019-03-04T20:21:31.641Z,5.8
2019-03-04T20:26:54.356Z,5.5
2019-03-04T20:32:17.159Z,6.2
2019-03-04T20:37:39.844Z,6
2019-03-04T20:43:04.264Z,6.6
2019-03-04T20:48:28.097Z,6.8
2019-03-04T20:53:50.870Z,4.2
2019-03-04T20:59:14.732Z,7.1
2019-03-04T21:04:37.544Z,6.9
2019-03-04T21:10:03.421Z,5.5
2019-03-04T21:15:26.170Z,6.8
2019-03-04T21:20:48.979Z,6.6
2019-03-04T21:26:11.779Z,6
2019-03-04T21:31:34.527Z,5.6
2019-03-04T21:36:58.119Z,5.6
2019-03-04T21:42:21.334Z,5.7
2019-03-04T21:47:44.460Z,3.8
2019-03-04T21:53:07.024Z,6.3
2019-03-04T21:58:29.791Z,4.8
2019-03-04T22:03:52.827Z,5.3
2019-03-04T22:09:16.468Z,6.6
2019-03-04T22:14:39.260Z,6.1
2019-03-04T22:20:02.707Z,6.3
2019-03-04T22:25:25.904Z,8.7
2019-03-04T22:30:48.904Z,5.8
2019-03-04T22:36:11.681Z,6.7
2019-03-04T22:41:34.298Z,6.4
2019-03-04T22:46:57.175Z,8.3
2019-03-04T22:52:19.871Z,10.3
2019-03-04T22:57:42.600Z,9.3
2019-03-04T23:03:05.288Z,6.3
2019-03-04T23:08:28.938Z,7.8
2019-03-04T23:13:51.896Z,7.6
2019-03-04T23:19:14.569Z,5.2
2019-03-04T23:24:37.275Z,6.5
2019-03-04T23:30:00.635Z,7.3
2019-03-04T23:35:23.549Z,8.4
2019-03-04T23:40:46.928Z,11.6
2019-03-04T23:46:09.644Z,13
2019-03-04T23:51:32.233Z,13
2019-03-04T23:56:56.064Z,10.4
